sensor_id;sensor_type;location;lat;lon;timestamp;P1;durP1;ratioP1;P2;durP2;ratioP2
23812;SDS011;12087;45.190;5.688;2024-03-23T00:57:31;3.17;;;2.30;;
23812;SDS011;12087;45.190;5.688;2024-03-23T01:02:53;5.72;;;2.78;;
23812;SDS011;12087;45.190;5.688;2024-03-23T01:08:15;5.63;;;2.50;;
23812;SDS011;12087;45.190;5.688;2024-03-23T01:13:39;4.88;;;2.47;;
23812;SDS011;12087;45.190;5.688;2024-03-23T01:19:01;4.25;;;2.47;;
23812;SDS011;12087;45.190;5.688;2024-03-23T01:24:23;3.67;;;2.50;;
23812;SDS011;12087;45.190;5.688;2024-03-23T01:29:47;4.07;;;2.88;;
23812;SDS011;12087;45.190;5.688;2024-03-23T01:35:09;3.35;;;2.38;;
23812;SDS011;12087;45.190;5.688;2024-03-23T01:40:32;4.45;;;2.15;;
23812;SDS011;12087;45.190;5.688;2024-03-23T01:45:56;3.65;;;2.50;;
23812;SDS011;12087;45.190;5.688;2024-03-23T01:51:18;6.03;;;2.80;;
23812;SDS011;12087;45.190;5.688;2024-03-23T01:56:40;7.38;;;2.90;;
23812;SDS011;12087;45.190;5.688;2024-03-23T02:02:04;7.40;;;2.88;;
23812;SDS011;12087;45.190;5.688;2024-03-23T02:07:26;3.10;;;2.60;;
23812;SDS011;12087;45.190;5.688;2024-03-23T02:12:48;7.63;;;2.72;;
23812;SDS011;12087;45.190;5.688;2024-03-23T02:18:12;5.78;;;2.50;;
23812;SDS011;12087;45.190;5.688;2024-03-23T02:23:36;4.60;;;2.75;;
23812;SDS011;12087;45.190;5.688;2024-03-23T02:28:58;3.30;;;2.55;;
23812;SDS011;12087;45.190;5.688;2024-03-23T02:34:20;4.68;;;1.90;;
23812;SDS011;12087;45.190;5.688;2024-03-23T02:39:45;4.18;;;2.70;;
23812;SDS011;12087;45.190;5.688;2024-03-23T02:45:07;3.40;;;2.00;;
23812;SDS011;12087;45.190;5.688;2024-03-23T02:50:29;2.55;;;2.00;;
23812;SDS011;12087;45.190;5.688;2024-03-23T02:55:53;3.22;;;2.08;;
23812;SDS011;12087;45.190;5.688;2024-03-23T03:01:15;3.95;;;2.10;;
23812;SDS011;12087;45.190;5.688;2024-03-23T03:06:38;4.70;;;2.13;;
23812;SDS011;12087;45.190;5.688;2024-03-23T03:12:02;4.00;;;2.42;;
23812;SDS011;12087;45.190;5.688;2024-03-23T03:17:25;4.35;;;2.25;;
23812;SDS011;12087;45.190;5.688;2024-03-23T03:22:47;5.10;;;2.50;;
23812;SDS011;12087;45.190;5.688;2024-03-23T03:28:11;3.08;;;2.22;;
23812;SDS011;12087;45.190;5.688;2024-03-23T03:33:33;4.80;;;2.10;;
23812;SDS011;12087;45.190;5.688;2024-03-23T03:38:55;3.72;;;2.38;;
23812;SDS011;12087;45.190;5.688;2024-03-23T03:44:18;6.55;;;2.97;;
23812;SDS011;12087;45.190;5.688;2024-03-23T03:49:42;3.45;;;2.58;;
23812;SDS011;12087;45.190;5.688;2024-03-23T03:55:05;4.10;;;2.45;;
23812;SDS011;12087;45.190;5.688;2024-03-23T04:00:37;4.32;;;2.67;;
23812;SDS011;12087;45.190;5.688;2024-03-23T04:05:59;4.70;;;2.35;;
23812;SDS011;12087;45.190;5.688;2024-03-23T04:11:21;2.30;;;1.90;;
23812;SDS011;12087;45.190;5.688;2024-03-23T04:16:45;4.70;;;2.42;;
23812;SDS011;12087;45.190;5.688;2024-03-23T04:22:07;5.72;;;2.50;;
23812;SDS011;12087;45.190;5.688;2024-03-23T04:27:29;5.45;;;2.30;;
23812;SDS011;12087;45.190;5.688;2024-03-23T04:32:53;7.68;;;3.03;;
23812;SDS011;12087;45.190;5.688;2024-03-23T04:38:15;7.15;;;3.28;;
23812;SDS011;12087;45.190;5.688;2024-03-23T04:43:37;6.85;;;3.65;;
23812;SDS011;12087;45.190;5.688;2024-03-23T04:49:01;3.92;;;2.78;;
23812;SDS011;12087;45.190;5.688;2024-03-23T04:54:24;6.53;;;3.80;;
23812;SDS011;12087;45.190;5.688;2024-03-23T04:59:48;12.52;;;4.00;;
23812;SDS011;12087;45.190;5.688;2024-03-23T05:05:11;7.43;;;3.78;;
23812;SDS011;12087;45.190;5.688;2024-03-23T05:10:35;8.65;;;4.10;;
23812;SDS011;12087;45.190;5.688;2024-03-23T05:15:57;9.45;;;4.55;;
23812;SDS011;12087;45.190;5.688;2024-03-23T05:21:21;8.60;;;4.82;;
23812;SDS011;12087;45.190;5.688;2024-03-23T05:26:43;9.98;;;4.80;;
23812;SDS011;12087;45.190;5.688;2024-03-23T05:32:05;8.73;;;3.67;;
23812;SDS011;12087;45.190;5.688;2024-03-23T05:37:29;5.50;;;3.08;;
23812;SDS011;12087;45.190;5.688;2024-03-23T05:42:54;5.97;;;3.72;;
23812;SDS011;12087;45.190;5.688;2024-03-23T05:48:16;13.75;;;6.22;;
23812;SDS011;12087;45.190;5.688;2024-03-23T05:53:40;11.20;;;8.05;;
23812;SDS011;12087;45.190;5.688;2024-03-23T05:59:02;8.57;;;5.55;;
23812;SDS011;12087;45.190;5.688;2024-03-23T06:04:24;13.27;;;6.75;;
23812;SDS011;12087;45.190;5.688;2024-03-23T06:09:48;14.10;;;8.18;;
23812;SDS011;12087;45.190;5.688;2024-03-23T06:15:11;12.13;;;8.32;;
23812;SDS011;12087;45.190;5.688;2024-03-23T06:20:37;12.43;;;7.75;;
23812;SDS011;12087;45.190;5.688;2024-03-23T06:26:11;12.35;;;8.63;;
23812;SDS011;12087;45.190;5.688;2024-03-23T06:31:34;15.77;;;6.95;;
23812;SDS011;12087;45.190;5.688;2024-03-23T06:36:56;11.23;;;7.60;;
23812;SDS011;12087;45.190;5.688;2024-03-23T06:42:20;14.23;;;8.35;;
23812;SDS011;12087;45.190;5.688;2024-03-23T06:47:42;12.80;;;7.93;;
23812;SDS011;12087;45.190;5.688;2024-03-23T06:53:04;15.82;;;8.15;;
23812;SDS011;12087;45.190;5.688;2024-03-23T06:58:28;11.55;;;7.20;;
23812;SDS011;12087;45.190;5.688;2024-03-23T07:03:50;10.10;;;7.72;;
23812;SDS011;12087;45.190;5.688;2024-03-23T07:09:12;15.00;;;7.70;;
23812;SDS011;12087;45.190;5.688;2024-03-23T07:14:36;15.20;;;8.07;;
23812;SDS011;12087;45.190;5.688;2024-03-23T07:19:58;12.20;;;8.10;;
23812;SDS011;12087;45.190;5.688;2024-03-23T07:25:21;12.00;;;8.07;;
23812;SDS011;12087;45.190;5.688;2024-03-23T07:30:47;11.77;;;7.38;;
23812;SDS011;12087;45.190;5.688;2024-03-23T07:36:09;16.30;;;8.30;;
23812;SDS011;12087;45.190;5.688;2024-03-23T07:41:31;8.38;;;6.45;;
23812;SDS011;12087;45.190;5.688;2024-03-23T07:46:55;9.20;;;6.35;;
23812;SDS011;12087;45.190;5.688;2024-03-23T07:52:17;13.73;;;5.95;;
23812;SDS011;12087;45.190;5.688;2024-03-23T07:57:39;8.00;;;5.40;;
23812;SDS011;12087;45.190;5.688;2024-03-23T08:03:03;11.55;;;5.97;;
23812;SDS011;12087;45.190;5.688;2024-03-23T08:08:26;8.80;;;5.43;;
23812;SDS011;12087;45.190;5.688;2024-03-23T08:13:48;9.88;;;6.10;;
23812;SDS011;12087;45.190;5.688;2024-03-23T08:19:12;11.07;;;5.20;;
23812;SDS011;12087;45.190;5.688;2024-03-23T08:24:34;6.93;;;5.22;;
23812;SDS011;12087;45.190;5.688;2024-03-23T08:29:56;7.70;;;5.03;;
23812;SDS011;12087;45.190;5.688;2024-03-23T08:35:20;5.97;;;4.82;;
23812;SDS011;12087;45.190;5.688;2024-03-23T08:40:42;6.47;;;5.05;;
23812;SDS011;12087;45.190;5.688;2024-03-23T08:46:05;2.72;;;2.10;;
23812;SDS011;12087;45.190;5.688;2024-03-23T08:51:30;3.28;;;1.92;;
23812;SDS011;12087;45.190;5.688;2024-03-23T08:56:52;5.03;;;1.30;;
23812;SDS011;12087;45.190;5.688;2024-03-23T09:02:14;2.83;;;1.20;;
23812;SDS011;12087;45.190;5.688;2024-03-23T09:07:38;2.20;;;1.23;;
23812;SDS011;12087;45.190;5.688;2024-03-23T09:13:00;3.20;;;1.00;;
23812;SDS011;12087;45.190;5.688;2024-03-23T09:18:23;2.83;;;0.90;;
23812;SDS011;12087;45.190;5.688;2024-03-23T09:23:47;2.42;;;1.10;;
23812;SDS011;12087;45.190;5.688;2024-03-23T09:29:09;6.80;;;1.27;;
23812;SDS011;12087;45.190;5.688;2024-03-23T09:34:31;2.58;;;1.20;;
23812;SDS011;12087;45.190;5.688;2024-03-23T09:39:56;9.35;;;1.80;;
23812;SDS011;12087;45.190;5.688;2024-03-23T09:45:21;4.47;;;1.33;;
23812;SDS011;12087;45.190;5.688;2024-03-23T09:50:47;7.90;;;1.85;;
23812;SDS011;12087;45.190;5.688;2024-03-23T09:56:11;7.32;;;1.77;;
23812;SDS011;12087;45.190;5.688;2024-03-23T10:01:33;9.73;;;1.65;;
23812;SDS011;12087;45.190;5.688;2024-03-23T10:06:55;6.28;;;2.13;;
23812;SDS011;12087;45.190;5.688;2024-03-23T10:12:33;7.82;;;1.52;;
23812;SDS011;12087;45.190;5.688;2024-03-23T10:17:55;10.98;;;1.80;;
23812;SDS011;12087;45.190;5.688;2024-03-23T10:23:17;10.90;;;1.92;;
23812;SDS011;12087;45.190;5.688;2024-03-23T10:28:51;8.10;;;1.70;;
23812;SDS011;12087;45.190;5.688;2024-03-23T10:34:24;7.72;;;1.80;;
23812;SDS011;12087;45.190;5.688;2024-03-23T10:39:47;14.30;;;1.90;;
23812;SDS011;12087;45.190;5.688;2024-03-23T10:45:11;5.95;;;1.67;;
23812;SDS011;12087;45.190;5.688;2024-03-23T10:50:33;7.88;;;1.90;;
23812;SDS011;12087;45.190;5.688;2024-03-23T10:55:56;5.10;;;1.52;;
23812;SDS011;12087;45.190;5.688;2024-03-23T11:01:19;8.13;;;2.03;;
23812;SDS011;12087;45.190;5.688;2024-03-23T11:06:42;11.25;;;1.95;;
23812;SDS011;12087;45.190;5.688;2024-03-23T11:12:10;6.78;;;1.85;;
23812;SDS011;12087;45.190;5.688;2024-03-23T11:23:26;3.80;;;1.20;;
23812;SDS011;12087;45.190;5.688;2024-03-23T11:28:49;5.05;;;1.77;;
23812;SDS011;12087;45.190;5.688;2024-03-23T11:34:12;7.03;;;1.80;;
23812;SDS011;12087;45.190;5.688;2024-03-23T11:39:36;6.38;;;1.65;;
23812;SDS011;12087;45.190;5.688;2024-03-23T11:44:58;6.72;;;1.60;;
23812;SDS011;12087;45.190;5.688;2024-03-23T11:50:29;8.18;;;2.00;;
23812;SDS011;12087;45.190;5.688;2024-03-23T11:55:52;5.55;;;1.58;;
23812;SDS011;12087;45.190;5.688;2024-03-23T12:01:15;4.10;;;1.45;;
23812;SDS011;12087;45.190;5.688;2024-03-23T12:06:38;7.35;;;1.90;;
23812;SDS011;12087;45.190;5.688;2024-03-23T12:12:05;9.45;;;2.10;;
23812;SDS011;12087;45.190;5.688;2024-03-23T12:17:28;6.68;;;1.60;;
23812;SDS011;12087;45.190;5.688;2024-03-23T12:22:52;9.93;;;2.63;;
23812;SDS011;12087;45.190;5.688;2024-03-23T12:28:27;9.35;;;1.77;;
23812;SDS011;12087;45.190;5.688;2024-03-23T12:33:49;12.27;;;1.80;;
23812;SDS011;12087;45.190;5.688;2024-03-23T12:39:14;6.40;;;2.00;;
23812;SDS011;12087;45.190;5.688;2024-03-23T12:44:36;7.97;;;1.48;;
23812;SDS011;12087;45.190;5.688;2024-03-23T12:49:58;3.90;;;1.73;;
23812;SDS011;12087;45.190;5.688;2024-03-23T12:55:22;4.78;;;1.42;;
23812;SDS011;12087;45.190;5.688;2024-03-23T13:00:44;6.40;;;1.67;;
23812;SDS011;12087;45.190;5.688;2024-03-23T13:06:06;6.57;;;2.00;;
23812;SDS011;12087;45.190;5.688;2024-03-23T13:11:30;8.23;;;1.70;;
23812;SDS011;12087;45.190;5.688;2024-03-23T13:16:53;5.18;;;1.70;;
23812;SDS011;12087;45.190;5.688;2024-03-23T13:22:15;6.68;;;2.00;;
23812;SDS011;12087;45.190;5.688;2024-03-23T13:27:39;7.18;;;1.83;;
23812;SDS011;12087;45.190;5.688;2024-03-23T13:33:01;5.13;;;1.60;;
23812;SDS011;12087;45.190;5.688;2024-03-23T13:38:23;3.42;;;1.40;;
23812;SDS011;12087;45.190;5.688;2024-03-23T13:43:47;6.40;;;1.88;;
23812;SDS011;12087;45.190;5.688;2024-03-23T13:49:11;6.20;;;1.60;;
23812;SDS011;12087;45.190;5.688;2024-03-23T13:54:46;7.30;;;2.30;;
23812;SDS011;12087;45.190;5.688;2024-03-23T14:00:10;5.00;;;1.50;;
23812;SDS011;12087;45.190;5.688;2024-03-23T14:05:33;5.47;;;1.65;;
23812;SDS011;12087;45.190;5.688;2024-03-23T14:10:55;6.90;;;1.33;;
23812;SDS011;12087;45.190;5.688;2024-03-23T14:16:20;7.63;;;1.35;;
23812;SDS011;12087;45.190;5.688;2024-03-23T14:21:42;5.78;;;1.48;;
23812;SDS011;12087;45.190;5.688;2024-03-23T14:27:04;5.60;;;1.70;;
23812;SDS011;12087;45.190;5.688;2024-03-23T14:32:28;3.13;;;1.10;;
23812;SDS011;12087;45.190;5.688;2024-03-23T14:37:54;5.85;;;1.42;;
23812;SDS011;12087;45.190;5.688;2024-03-23T14:43:16;3.55;;;0.90;;
23812;SDS011;12087;45.190;5.688;2024-03-23T14:48:40;4.38;;;1.17;;
23812;SDS011;12087;45.190;5.688;2024-03-23T14:54:03;6.60;;;1.17;;
23812;SDS011;12087;45.190;5.688;2024-03-23T14:59:25;6.03;;;1.67;;
23812;SDS011;12087;45.190;5.688;2024-03-23T15:04:49;4.97;;;1.30;;
23812;SDS011;12087;45.190;5.688;2024-03-23T15:10:11;6.45;;;1.33;;
23812;SDS011;12087;45.190;5.688;2024-03-23T15:15:37;5.38;;;1.25;;
23812;SDS011;12087;45.190;5.688;2024-03-23T15:21:02;3.10;;;1.08;;
23812;SDS011;12087;45.190;5.688;2024-03-23T15:26:26;4.45;;;1.00;;
23812;SDS011;12087;45.190;5.688;2024-03-23T15:31:48;7.65;;;1.98;;
23812;SDS011;12087;45.190;5.688;2024-03-23T15:37:14;6.80;;;1.50;;
23812;SDS011;12087;45.190;5.688;2024-03-23T15:42:36;3.15;;;0.80;;
23812;SDS011;12087;45.190;5.688;2024-03-23T15:47:58;9.32;;;1.60;;
23812;SDS011;12087;45.190;5.688;2024-03-23T15:53:22;4.60;;;1.38;;
23812;SDS011;12087;45.190;5.688;2024-03-23T15:58:45;5.45;;;1.27;;
23812;SDS011;12087;45.190;5.688;2024-03-23T16:04:08;5.22;;;1.23;;
23812;SDS011;12087;45.190;5.688;2024-03-23T16:09:31;4.28;;;1.17;;
23812;SDS011;12087;45.190;5.688;2024-03-23T16:14:53;7.82;;;1.38;;
23812;SDS011;12087;45.190;5.688;2024-03-23T16:20:15;4.50;;;1.10;;
23812;SDS011;12087;45.190;5.688;2024-03-23T16:25:39;2.72;;;0.90;;
23812;SDS011;12087;45.190;5.688;2024-03-23T16:31:09;4.32;;;0.93;;
23812;SDS011;12087;45.190;5.688;2024-03-23T16:36:31;4.65;;;1.70;;
23812;SDS011;12087;45.190;5.688;2024-03-23T16:41:55;2.97;;;0.85;;
23812;SDS011;12087;45.190;5.688;2024-03-23T16:47:17;3.95;;;1.02;;
23812;SDS011;12087;45.190;5.688;2024-03-23T16:52:39;4.55;;;1.20;;
23812;SDS011;12087;45.190;5.688;2024-03-23T16:58:03;2.45;;;1.00;;
23812;SDS011;12087;45.190;5.688;2024-03-23T17:03:25;2.10;;;1.00;;
23812;SDS011;12087;45.190;5.688;2024-03-23T17:08:48;6.03;;;1.08;;
23812;SDS011;12087;45.190;5.688;2024-03-23T17:14:12;4.40;;;1.45;;
23812;SDS011;12087;45.190;5.688;2024-03-23T17:19:35;14.73;;;1.95;;
23812;SDS011;12087;45.190;5.688;2024-03-23T17:24:58;6.03;;;1.90;;
23812;SDS011;12087;45.190;5.688;2024-03-23T17:30:22;3.58;;;1.40;;
23812;SDS011;12087;45.190;5.688;2024-03-23T17:35:44;3.22;;;1.60;;
23812;SDS011;12087;45.190;5.688;2024-03-23T17:41:07;2.90;;;1.27;;
23812;SDS011;12087;45.190;5.688;2024-03-23T17:46:34;5.97;;;1.35;;
23812;SDS011;12087;45.190;5.688;2024-03-23T17:51:58;4.10;;;1.13;;
23812;SDS011;12087;45.190;5.688;2024-03-23T17:57:22;4.85;;;1.10;;
23812;SDS011;12087;45.190;5.688;2024-03-23T18:02:46;8.25;;;2.13;;
23812;SDS011;12087;45.190;5.688;2024-03-23T18:08:10;3.95;;;1.60;;
23812;SDS011;12087;45.190;5.688;2024-03-23T18:13:32;6.13;;;2.20;;
23812;SDS011;12087;45.190;5.688;2024-03-23T18:18:56;8.75;;;2.10;;
23812;SDS011;12087;45.190;5.688;2024-03-23T18:24:18;6.03;;;2.28;;
23812;SDS011;12087;45.190;5.688;2024-03-23T18:29:40;5.82;;;1.77;;
23812;SDS011;12087;45.190;5.688;2024-03-23T18:35:04;4.82;;;1.77;;
23812;SDS011;12087;45.190;5.688;2024-03-23T18:40:28;8.85;;;1.63;;
23812;SDS011;12087;45.190;5.688;2024-03-23T18:45:50;3.58;;;1.75;;
23812;SDS011;12087;45.190;5.688;2024-03-23T18:51:14;4.88;;;2.15;;
23812;SDS011;12087;45.190;5.688;2024-03-23T18:56:36;8.35;;;1.80;;
23812;SDS011;12087;45.190;5.688;2024-03-23T19:01:59;5.13;;;2.05;;
23812;SDS011;12087;45.190;5.688;2024-03-23T19:07:22;4.70;;;1.58;;
23812;SDS011;12087;45.190;5.688;2024-03-23T19:12:45;5.82;;;2.90;;
23812;SDS011;12087;45.190;5.688;2024-03-23T19:18:07;9.20;;;3.03;;
23812;SDS011;12087;45.190;5.688;2024-03-23T19:23:31;10.27;;;1.88;;
23812;SDS011;12087;45.190;5.688;2024-03-23T19:28:54;7.38;;;2.30;;
23812;SDS011;12087;45.190;5.688;2024-03-23T19:34:16;6.10;;;1.80;;
23812;SDS011;12087;45.190;5.688;2024-03-23T19:39:40;6.72;;;2.10;;
23812;SDS011;12087;45.190;5.688;2024-03-23T19:45:02;8.80;;;2.42;;
23812;SDS011;12087;45.190;5.688;2024-03-23T19:50:25;5.63;;;2.67;;
23812;SDS011;12087;45.190;5.688;2024-03-23T19:55:58;4.15;;;1.83;;
23812;SDS011;12087;45.190;5.688;2024-03-23T20:01:23;5.65;;;2.58;;
23812;SDS011;12087;45.190;5.688;2024-03-23T20:06:45;6.68;;;2.80;;
23812;SDS011;12087;45.190;5.688;2024-03-23T20:12:09;10.48;;;3.78;;
23812;SDS011;12087;45.190;5.688;2024-03-23T20:17:31;9.52;;;3.22;;
23812;SDS011;12087;45.190;5.688;2024-03-23T20:22:53;7.65;;;2.83;;
23812;SDS011;12087;45.190;5.688;2024-03-23T20:28:17;7.50;;;2.08;;
23812;SDS011;12087;45.190;5.688;2024-03-23T20:33:39;8.70;;;2.35;;
23812;SDS011;12087;45.190;5.688;2024-03-23T20:39:02;4.78;;;2.13;;
23812;SDS011;12087;45.190;5.688;2024-03-23T20:44:26;8.95;;;2.08;;
23812;SDS011;12087;45.190;5.688;2024-03-23T20:49:48;2.97;;;1.63;;
23812;SDS011;12087;45.190;5.688;2024-03-23T20:55:10;10.02;;;2.83;;
23812;SDS011;12087;45.190;5.688;2024-03-23T21:00:34;5.70;;;1.77;;
23812;SDS011;12087;45.190;5.688;2024-03-23T21:05:56;5.32;;;1.88;;
23812;SDS011;12087;45.190;5.688;2024-03-23T21:11:18;8.57;;;2.47;;
23812;SDS011;12087;45.190;5.688;2024-03-23T21:16:42;6.68;;;2.38;;
23812;SDS011;12087;45.190;5.688;2024-03-23T21:22:04;11.63;;;1.98;;
23812;SDS011;12087;45.190;5.688;2024-03-23T21:27:27;8.80;;;2.17;;
23812;SDS011;12087;45.190;5.688;2024-03-23T21:32:50;11.05;;;2.05;;
23812;SDS011;12087;45.190;5.688;2024-03-23T21:38:13;4.72;;;2.17;;
23812;SDS011;12087;45.190;5.688;2024-03-23T21:43:35;4.78;;;1.88;;
23812;SDS011;12087;45.190;5.688;2024-03-23T21:48:59;4.82;;;2.20;;
23812;SDS011;12087;45.190;5.688;2024-03-23T21:54:22;6.38;;;1.70;;
23812;SDS011;12087;45.190;5.688;2024-03-23T21:59:44;5.18;;;1.80;;
23812;SDS011;12087;45.190;5.688;2024-03-23T22:05:08;9.82;;;2.60;;
23812;SDS011;12087;45.190;5.688;2024-03-23T22:10:31;7.65;;;2.03;;
23812;SDS011;12087;45.190;5.688;2024-03-23T22:15:56;7.35;;;2.50;;
23812;SDS011;12087;45.190;5.688;2024-03-23T22:21:20;7.95;;;2.42;;
23812;SDS011;12087;45.190;5.688;2024-03-23T22:26:42;7.30;;;2.45;;
23812;SDS011;12087;45.190;5.688;2024-03-23T22:32:04;4.60;;;1.75;;
23812;SDS011;12087;45.190;5.688;2024-03-23T22:37:28;8.40;;;1.70;;
23812;SDS011;12087;45.190;5.688;2024-03-23T22:42:50;3.83;;;1.70;;
23812;SDS011;12087;45.190;5.688;2024-03-23T22:48:13;8.10;;;2.50;;
23812;SDS011;12087;45.190;5.688;2024-03-23T22:53:36;6.07;;;1.65;;
23812;SDS011;12087;45.190;5.688;2024-03-23T22:58:58;4.05;;;1.13;;
23812;SDS011;12087;45.190;5.688;2024-03-23T23:04:21;9.70;;;1.75;;
23812;SDS011;12087;45.190;5.688;2024-03-23T23:09:45;3.05;;;1.17;;
23812;SDS011;12087;45.190;5.688;2024-03-23T23:15:08;5.82;;;1.30;;
23812;SDS011;12087;45.190;5.688;2024-03-23T23:20:31;6.50;;;1.92;;
23812;SDS011;12087;45.190;5.688;2024-03-23T23:25:55;5.88;;;1.83;;
23812;SDS011;12087;45.190;5.688;2024-03-23T23:31:17;5.88;;;1.48;;
23812;SDS011;12087;45.190;5.688;2024-03-23T23:36:40;3.90;;;1.80;;
23812;SDS011;12087;45.190;5.688;2024-03-23T23:42:04;3.78;;;1.30;;
23812;SDS011;12087;45.190;5.688;2024-03-23T23:47:26;9.00;;;2.72;;
23812;SDS011;12087;45.190;5.688;2024-03-23T23:52:48;5.15;;;2.38;;
23812;SDS011;12087;45.190;5.688;2024-03-23T23:58:12;7.70;;;3.25;;
